Mission Viejo, California
Current Conditions -  °F | °C
As of 2:53 AM on Thursday 23 Oct 2014 (Local Time) from KSNA Reporting Station
Clear Clear  
Wind Chill: 66°   Ceiling: Unl
Heat Index: 66°   Visibility: 9mi
Dew Point: 58°   Wind: 0mph
Humidity: 75%   Direction: NA
Pressure: 29.94"   Gusts: NA
Location:  33.62°N, 117.67°W
Report Text: KSNA 230953Z AUTO 00000KT 9SM CLR 19/14 A2994 RMK AO2 SLP137 T01890144 TSNO
Loading
Personal Weather Stations






























Interactive Weather Map
Tropical Storm Tracking
New forecast layout! Learn more

10-Day Weather Forecast

Advertisements
Track Severe Weather on mobile